Terminal Aerodrome Forecast
Issued by NWS Amarillo, TX

Home | Current Version | Previous Version | Text Only | Print | Product List | Glossary On
Versions: 1 2 3 4 5 6 7 8 9 10 11 12 13 14 15 16 17 18 19 20 21 22 23 24 25
000
FTUS44 KAMA 242300
TAFDHT
TAF
KDHT 242322Z 2500/2524 19011KT P6SM FEW070 SCT300
     FM250600 25008KT P6SM SCT300
     FM251200 31008KT P6SM SKC
     FM251700 20012KT P6SM SCT070 SCT300=

USA.gov is the U.S. government's official web portal to all federal, state and local government web resources and services.